<?xml version="1.0" encoding="UTF-8" standalone="no" ?>
<gpx xmlns="http://www.topografix.com/GPX/1/1" xmlns:xsi="http://www.w3.org/2001/XMLSchema-instance" xsi:schemaLocation="http://www.topografix.com/GPX/1/1 http://www.topografix.com/GPX/1/1/gpx.xsd" version="1.1" creator="VisuGPX - https://www.visugpx.com">
  <metadata>
    <name>tour de caussol</name>
    <desc><![CDATA[tour de caussol
vtt]]></desc>
  </metadata>
  <trk>
    <name><![CDATA[2011-02-08 19:44:10 +0000]]></name>
    <cmt><![CDATA[Radôme by night]]></cmt>
    <trkseg>
      <trkpt lat="43.70767" lon="6.9739">
        <ele>657</ele>
        <time>2011-02-08T19:44:10Z</time>
      </trkpt>
      <trkpt lat="43.70775" lon="6.97372">
        <ele>626</ele>
        <time>2011-02-08T19:45:01Z</time>
      </trkpt>
      <trkpt lat="43.70777" lon="6.97375">
        <ele>626</ele>
        <time>2011-02-08T19:45:53Z</time>
      </trkpt>
      <trkpt lat="43.70786" lon="6.97376">
        <ele>632</ele>
        <time>2011-02-08T19:46:23Z</time>
      </trkpt>
      <trkpt lat="43.70788" lon="6.9736">
        <ele>636</ele>
        <time>2011-02-08T19:46:34Z</time>
      </trkpt>
      <trkpt lat="43.70803" lon="6.97295">
        <ele>649</ele>
        <time>2011-02-08T19:47:10Z</time>
      </trkpt>
      <trkpt lat="43.70838" lon="6.97243">
        <ele>640</ele>
        <time>2011-02-08T19:47:34Z</time>
      </trkpt>
      <trkpt lat="43.70867" lon="6.97212">
        <ele>644</ele>
        <time>2011-02-08T19:47:54Z</time>
      </trkpt>
      <trkpt lat="43.70874" lon="6.97202">
        <ele>644</ele>
        <time>2011-02-08T19:48:02Z</time>
      </trkpt>
      <trkpt lat="43.70887" lon="6.97167">
        <ele>654</ele>
        <time>2011-02-08T19:48:23Z</time>
      </trkpt>
      <trkpt lat="43.7089" lon="6.97155">
        <ele>653</ele>
        <time>2011-02-08T19:48:29Z</time>
      </trkpt>
      <trkpt lat="43.70908" lon="6.97117">
        <ele>659</ele>
        <time>2011-02-08T19:48:49Z</time>
      </trkpt>
      <trkpt lat="43.70915" lon="6.97096">
        <ele>660</ele>
        <time>2011-02-08T19:48:59Z</time>
      </trkpt>
      <trkpt lat="43.70924" lon="6.9707">
        <ele>664</ele>
        <time>2011-02-08T19:49:10Z</time>
      </trkpt>
      <trkpt lat="43.70941" lon="6.9703">
        <ele>667</ele>
        <time>2011-02-08T19:49:28Z</time>
      </trkpt>
      <trkpt lat="43.70947" lon="6.96994">
        <ele>672</ele>
        <time>2011-02-08T19:49:42Z</time>
      </trkpt>
      <trkpt lat="43.70946" lon="6.96975">
        <ele>673</ele>
        <time>2011-02-08T19:49:50Z</time>
      </trkpt>
      <trkpt lat="43.70949" lon="6.96952">
        <ele>676</ele>
        <time>2011-02-08T19:49:59Z</time>
      </trkpt>
      <trkpt lat="43.70952" lon="6.9694">
        <ele>676</ele>
        <time>2011-02-08T19:50:03Z</time>
      </trkpt>
      <trkpt lat="43.70967" lon="6.96918">
        <ele>679</ele>
        <time>2011-02-08T19:50:10Z</time>
      </trkpt>
      <trkpt lat="43.70977" lon="6.96912">
        <ele>680</ele>
        <time>2011-02-08T19:50:13Z</time>
      </trkpt>
      <trkpt lat="43.70992" lon="6.96913">
        <ele>681</ele>
        <time>2011-02-08T19:50:20Z</time>
      </trkpt>
      <trkpt lat="43.71003" lon="6.9693">
        <ele>689</ele>
        <time>2011-02-08T19:50:31Z</time>
      </trkpt>
      <trkpt lat="43.71013" lon="6.96947">
        <ele>694</ele>
        <time>2011-02-08T19:50:39Z</time>
      </trkpt>
      <trkpt lat="43.71024" lon="6.96952">
        <ele>696</ele>
        <time>2011-02-08T19:50:44Z</time>
      </trkpt>
      <trkpt lat="43.71065" lon="6.96969">
        <ele>699</ele>
        <time>2011-02-08T19:51:01Z</time>
      </trkpt>
      <trkpt lat="43.71079" lon="6.96979">
        <ele>698</ele>
        <time>2011-02-08T19:51:08Z</time>
      </trkpt>
      <trkpt lat="43.7111" lon="6.96992">
        <ele>698</ele>
        <time>2011-02-08T19:51:22Z</time>
      </trkpt>
      <trkpt lat="43.71141" lon="6.97004">
        <ele>694</ele>
        <time>2011-02-08T19:51:35Z</time>
      </trkpt>
      <trkpt lat="43.7117" lon="6.97014">
        <ele>697</ele>
        <time>2011-02-08T19:51:48Z</time>
      </trkpt>
      <trkpt lat="43.71214" lon="6.97031">
        <ele>706</ele>
        <time>2011-02-08T19:52:09Z</time>
      </trkpt>
      <trkpt lat="43.71231" lon="6.97036">
        <ele>706</ele>
        <time>2011-02-08T19:52:16Z</time>
      </trkpt>
      <trkpt lat="43.71247" lon="6.97036">
        <ele>705</ele>
        <time>2011-02-08T19:52:23Z</time>
      </trkpt>
      <trkpt lat="43.7129" lon="6.97039">
        <ele>709</ele>
        <time>2011-02-08T19:52:43Z</time>
      </trkpt>
      <trkpt lat="43.71311" lon="6.97046">
        <ele>717</ele>
        <time>2011-02-08T19:52:56Z</time>
      </trkpt>
      <trkpt lat="43.71329" lon="6.97064">
        <ele>720</ele>
        <time>2011-02-08T19:53:04Z</time>
      </trkpt>
      <trkpt lat="43.71374" lon="6.97106">
        <ele>720</ele>
        <time>2011-02-08T19:53:21Z</time>
      </trkpt>
      <trkpt lat="43.71388" lon="6.97122">
        <ele>718</ele>
        <time>2011-02-08T19:53:27Z</time>
      </trkpt>
      <trkpt lat="43.71413" lon="6.9715">
        <ele>720</ele>
        <time>2011-02-08T19:53:40Z</time>
      </trkpt>
      <trkpt lat="43.71464" lon="6.97189">
        <ele>709</ele>
        <time>2011-02-08T19:54:04Z</time>
      </trkpt>
      <trkpt lat="43.71452" lon="6.97174">
        <ele>699</ele>
        <time>2011-02-08T19:54:15Z</time>
      </trkpt>
      <trkpt lat="43.71438" lon="6.9716">
        <ele>697</ele>
        <time>2011-02-08T19:54:24Z</time>
      </trkpt>
      <trkpt lat="43.71426" lon="6.97143">
        <ele>698</ele>
        <time>2011-02-08T19:54:32Z</time>
      </trkpt>
      <trkpt lat="43.71403" lon="6.97106">
        <ele>707</ele>
        <time>2011-02-08T19:54:47Z</time>
      </trkpt>
      <trkpt lat="43.71346" lon="6.97022">
        <ele>716</ele>
        <time>2011-02-08T19:55:20Z</time>
      </trkpt>
      <trkpt lat="43.71336" lon="6.97004">
        <ele>716</ele>
        <time>2011-02-08T19:55:26Z</time>
      </trkpt>
      <trkpt lat="43.71325" lon="6.96987">
        <ele>718</ele>
        <time>2011-02-08T19:55:33Z</time>
      </trkpt>
      <trkpt lat="43.71314" lon="6.96967">
        <ele>718</ele>
        <time>2011-02-08T19:55:40Z</time>
      </trkpt>
      <trkpt lat="43.71306" lon="6.96949">
        <ele>720</ele>
        <time>2011-02-08T19:55:46Z</time>
      </trkpt>
      <trkpt lat="43.713" lon="6.9693">
        <ele>720</ele>
        <time>2011-02-08T19:55:52Z</time>
      </trkpt>
      <trkpt lat="43.71282" lon="6.96875">
        <ele>724</ele>
        <time>2011-02-08T19:56:11Z</time>
      </trkpt>
      <trkpt lat="43.71277" lon="6.96857">
        <ele>728</ele>
        <time>2011-02-08T19:56:17Z</time>
      </trkpt>
      <trkpt lat="43.71242" lon="6.96754">
        <ele>737</ele>
        <time>2011-02-08T19:56:49Z</time>
      </trkpt>
      <trkpt lat="43.71234" lon="6.96735">
        <ele>738</ele>
        <time>2011-02-08T19:56:56Z</time>
      </trkpt>
      <trkpt lat="43.71224" lon="6.96712">
        <ele>741</ele>
        <time>2011-02-08T19:57:04Z</time>
      </trkpt>
      <trkpt lat="43.71215" lon="6.96643">
        <ele>741</ele>
        <time>2011-02-08T19:57:23Z</time>
      </trkpt>
      <trkpt lat="43.71212" lon="6.9662">
        <ele>742</ele>
        <time>2011-02-08T19:57:30Z</time>
      </trkpt>
      <trkpt lat="43.71203" lon="6.96545">
        <ele>750</ele>
        <time>2011-02-08T19:57:53Z</time>
      </trkpt>
      <trkpt lat="43.71203" lon="6.96516">
        <ele>750</ele>
        <time>2011-02-08T19:58:00Z</time>
      </trkpt>
      <trkpt lat="43.71203" lon="6.9649">
        <ele>751</ele>
        <time>2011-02-08T19:58:06Z</time>
      </trkpt>
      <trkpt lat="43.71196" lon="6.96432">
        <ele>746</ele>
        <time>2011-02-08T19:58:17Z</time>
      </trkpt>
      <trkpt lat="43.71187" lon="6.96408">
        <ele>747</ele>
        <time>2011-02-08T19:58:24Z</time>
      </trkpt>
      <trkpt lat="43.71176" lon="6.96389">
        <ele>746</ele>
        <time>2011-02-08T19:58:30Z</time>
      </trkpt>
      <trkpt lat="43.71167" lon="6.96369">
        <ele>747</ele>
        <time>2011-02-08T19:58:36Z</time>
      </trkpt>
      <trkpt lat="43.71159" lon="6.96348">
        <ele>747</ele>
        <time>2011-02-08T19:58:43Z</time>
      </trkpt>
      <trkpt lat="43.71155" lon="6.96292">
        <ele>756</ele>
        <time>2011-02-08T19:59:05Z</time>
      </trkpt>
      <trkpt lat="43.71169" lon="6.96279">
        <ele>752</ele>
        <time>2011-02-08T19:59:10Z</time>
      </trkpt>
      <trkpt lat="43.71181" lon="6.96277">
        <ele>750</ele>
        <time>2011-02-08T19:59:14Z</time>
      </trkpt>
      <trkpt lat="43.71198" lon="6.96277">
        <ele>752</ele>
        <time>2011-02-08T19:59:21Z</time>
      </trkpt>
      <trkpt lat="43.71214" lon="6.96277">
        <ele>752</ele>
        <time>2011-02-08T19:59:27Z</time>
      </trkpt>
      <trkpt lat="43.71226" lon="6.96276">
        <ele>750</ele>
        <time>2011-02-08T19:59:31Z</time>
      </trkpt>
      <trkpt lat="43.71291" lon="6.96267">
        <ele>757</ele>
        <time>2011-02-08T19:59:50Z</time>
      </trkpt>
      <trkpt lat="43.71346" lon="6.96291">
        <ele>764</ele>
        <time>2011-02-08T20:00:06Z</time>
      </trkpt>
      <trkpt lat="43.71363" lon="6.96306">
        <ele>766</ele>
        <time>2011-02-08T20:00:10Z</time>
      </trkpt>
      <trkpt lat="43.71376" lon="6.96325">
        <ele>767</ele>
        <time>2011-02-08T20:00:14Z</time>
      </trkpt>
      <trkpt lat="43.71419" lon="6.96407">
        <ele>777</ele>
        <time>2011-02-08T20:00:30Z</time>
      </trkpt>
      <trkpt lat="43.7143" lon="6.96515">
        <ele>765</ele>
        <time>2011-02-08T20:00:45Z</time>
      </trkpt>
      <trkpt lat="43.71446" lon="6.96571">
        <ele>763</ele>
        <time>2011-02-08T20:00:53Z</time>
      </trkpt>
      <trkpt lat="43.71462" lon="6.96642">
        <ele>765</ele>
        <time>2011-02-08T20:01:04Z</time>
      </trkpt>
      <trkpt lat="43.71499" lon="6.96722">
        <ele>761</ele>
        <time>2011-02-08T20:01:17Z</time>
      </trkpt>
      <trkpt lat="43.71519" lon="6.9673">
        <ele>761</ele>
        <time>2011-02-08T20:01:21Z</time>
      </trkpt>
      <trkpt lat="43.71536" lon="6.9673">
        <ele>760</ele>
        <time>2011-02-08T20:01:24Z</time>
      </trkpt>
      <trkpt lat="43.71572" lon="6.96698">
        <ele>757</ele>
        <time>2011-02-08T20:01:31Z</time>
      </trkpt>
      <trkpt lat="43.7158" lon="6.96674">
        <ele>755</ele>
        <time>2011-02-08T20:01:34Z</time>
      </trkpt>
      <trkpt lat="43.71598" lon="6.96641">
        <ele>754</ele>
        <time>2011-02-08T20:01:38Z</time>
      </trkpt>
      <trkpt lat="43.71741" lon="6.96435">
        <ele>746</ele>
        <time>2011-02-08T20:02:11Z</time>
      </trkpt>
      <trkpt lat="43.71756" lon="6.96415">
        <ele>744</ele>
        <time>2011-02-08T20:02:14Z</time>
      </trkpt>
      <trkpt lat="43.71768" lon="6.96395">
        <ele>744</ele>
        <time>2011-02-08T20:02:17Z</time>
      </trkpt>
      <trkpt lat="43.71778" lon="6.96368">
        <ele>743</ele>
        <time>2011-02-08T20:02:20Z</time>
      </trkpt>
      <trkpt lat="43.71791" lon="6.96313">
        <ele>741</ele>
        <time>2011-02-08T20:02:25Z</time>
      </trkpt>
      <trkpt lat="43.71816" lon="6.96242">
        <ele>736</ele>
        <time>2011-02-08T20:02:33Z</time>
      </trkpt>
      <trkpt lat="43.7183" lon="6.96226">
        <ele>736</ele>
        <time>2011-02-08T20:02:37Z</time>
      </trkpt>
      <trkpt lat="43.7187" lon="6.96191">
        <ele>739</ele>
        <time>2011-02-08T20:02:44Z</time>
      </trkpt>
      <trkpt lat="43.71945" lon="6.96166">
        <ele>736</ele>
        <time>2011-02-08T20:02:55Z</time>
      </trkpt>
      <trkpt lat="43.71982" lon="6.96173">
        <ele>737</ele>
        <time>2011-02-08T20:03:08Z</time>
      </trkpt>
      <trkpt lat="43.71997" lon="6.96188">
        <ele>737</ele>
        <time>2011-02-08T20:03:15Z</time>
      </trkpt>
      <trkpt lat="43.72002" lon="6.96211">
        <ele>738</ele>
        <time>2011-02-08T20:03:19Z</time>
      </trkpt>
      <trkpt lat="43.72006" lon="6.96237">
        <ele>738</ele>
        <time>2011-02-08T20:03:23Z</time>
      </trkpt>
      <trkpt lat="43.72016" lon="6.96261">
        <ele>739</ele>
        <time>2011-02-08T20:03:26Z</time>
      </trkpt>
      <trkpt lat="43.72027" lon="6.96327">
        <ele>738</ele>
        <time>2011-02-08T20:03:32Z</time>
      </trkpt>
      <trkpt lat="43.72032" lon="6.9635">
        <ele>736</ele>
        <time>2011-02-08T20:03:34Z</time>
      </trkpt>
      <trkpt lat="43.72055" lon="6.96463">
        <ele>729</ele>
        <time>2011-02-08T20:03:47Z</time>
      </trkpt>
      <trkpt lat="43.72057" lon="6.96488">
        <ele>729</ele>
        <time>2011-02-08T20:03:51Z</time>
      </trkpt>
      <trkpt lat="43.72061" lon="6.96513">
        <ele>730</ele>
        <time>2011-02-08T20:03:56Z</time>
      </trkpt>
      <trkpt lat="43.72064" lon="6.96527">
        <ele>730</ele>
        <time>2011-02-08T20:04:00Z</time>
      </trkpt>
      <trkpt lat="43.72077" lon="6.9654">
        <ele>730</ele>
        <time>2011-02-08T20:04:07Z</time>
      </trkpt>
      <trkpt lat="43.72094" lon="6.96541">
        <ele>730</ele>
        <time>2011-02-08T20:04:13Z</time>
      </trkpt>
      <trkpt lat="43.72128" lon="6.96532">
        <ele>730</ele>
        <time>2011-02-08T20:04:22Z</time>
      </trkpt>
      <trkpt lat="43.72174" lon="6.96492">
        <ele>728</ele>
        <time>2011-02-08T20:04:33Z</time>
      </trkpt>
      <trkpt lat="43.72191" lon="6.96489">
        <ele>729</ele>
        <time>2011-02-08T20:04:36Z</time>
      </trkpt>
      <trkpt lat="43.72201" lon="6.96492">
        <ele>729</ele>
        <time>2011-02-08T20:04:38Z</time>
      </trkpt>
      <trkpt lat="43.72208" lon="6.965">
        <ele>730</ele>
        <time>2011-02-08T20:04:40Z</time>
      </trkpt>
      <trkpt lat="43.72231" lon="6.96564">
        <ele>736</ele>
        <time>2011-02-08T20:04:55Z</time>
      </trkpt>
      <trkpt lat="43.72235" lon="6.96587">
        <ele>737</ele>
        <time>2011-02-08T20:05:01Z</time>
      </trkpt>
      <trkpt lat="43.72233" lon="6.96611">
        <ele>740</ele>
        <time>2011-02-08T20:05:09Z</time>
      </trkpt>
      <trkpt lat="43.72228" lon="6.96633">
        <ele>740</ele>
        <time>2011-02-08T20:05:16Z</time>
      </trkpt>
      <trkpt lat="43.72229" lon="6.96653">
        <ele>739</ele>
        <time>2011-02-08T20:05:22Z</time>
      </trkpt>
      <trkpt lat="43.72237" lon="6.96701">
        <ele>741</ele>
        <time>2011-02-08T20:05:34Z</time>
      </trkpt>
      <trkpt lat="43.72245" lon="6.96748">
        <ele>741</ele>
        <time>2011-02-08T20:05:43Z</time>
      </trkpt>
      <trkpt lat="43.72249" lon="6.96773">
        <ele>740</ele>
        <time>2011-02-08T20:05:48Z</time>
      </trkpt>
      <trkpt lat="43.72252" lon="6.96789">
        <ele>740</ele>
        <time>2011-02-08T20:05:51Z</time>
      </trkpt>
      <trkpt lat="43.72255" lon="6.96804">
        <ele>741</ele>
        <time>2011-02-08T20:05:54Z</time>
      </trkpt>
      <trkpt lat="43.72258" lon="6.96839">
        <ele>741</ele>
        <time>2011-02-08T20:06:00Z</time>
      </trkpt>
      <trkpt lat="43.72261" lon="6.96868">
        <ele>740</ele>
        <time>2011-02-08T20:06:04Z</time>
      </trkpt>
      <trkpt lat="43.7227" lon="6.97152">
        <ele>739</ele>
        <time>2011-02-08T20:06:34Z</time>
      </trkpt>
      <trkpt lat="43.72265" lon="6.97184">
        <ele>737</ele>
        <time>2011-02-08T20:06:37Z</time>
      </trkpt>
      <trkpt lat="43.72261" lon="6.97206">
        <ele>737</ele>
        <time>2011-02-08T20:06:39Z</time>
      </trkpt>
      <trkpt lat="43.72263" lon="6.97314">
        <ele>731</ele>
        <time>2011-02-08T20:06:49Z</time>
      </trkpt>
      <trkpt lat="43.72259" lon="6.97333">
        <ele>731</ele>
        <time>2011-02-08T20:06:51Z</time>
      </trkpt>
      <trkpt lat="43.72249" lon="6.97357">
        <ele>729</ele>
        <time>2011-02-08T20:06:54Z</time>
      </trkpt>
      <trkpt lat="43.72238" lon="6.97367">
        <ele>729</ele>
        <time>2011-02-08T20:06:56Z</time>
      </trkpt>
      <trkpt lat="43.72212" lon="6.97385">
        <ele>726</ele>
        <time>2011-02-08T20:07:01Z</time>
      </trkpt>
      <trkpt lat="43.72229" lon="6.97387">
        <ele>724</ele>
        <time>2011-02-08T20:07:10Z</time>
      </trkpt>
      <trkpt lat="43.7224" lon="6.9738">
        <ele>723</ele>
        <time>2011-02-08T20:07:14Z</time>
      </trkpt>
      <trkpt lat="43.72251" lon="6.97374">
        <ele>723</ele>
        <time>2011-02-08T20:07:18Z</time>
      </trkpt>
      <trkpt lat="43.72266" lon="6.97363">
        <ele>724</ele>
        <time>2011-02-08T20:07:24Z</time>
      </trkpt>
      <trkpt lat="43.72275" lon="6.97342">
        <ele>725</ele>
        <time>2011-02-08T20:07:30Z</time>
      </trkpt>
      <trkpt lat="43.72278" lon="6.97327">
        <ele>726</ele>
        <time>2011-02-08T20:07:34Z</time>
      </trkpt>
      <trkpt lat="43.72282" lon="6.97304">
        <ele>726</ele>
        <time>2011-02-08T20:07:40Z</time>
      </trkpt>
      <trkpt lat="43.72276" lon="6.97257">
        <ele>729</ele>
        <time>2011-02-08T20:07:52Z</time>
      </trkpt>
      <trkpt lat="43.72274" lon="6.97232">
        <ele>729</ele>
        <time>2011-02-08T20:07:58Z</time>
      </trkpt>
      <trkpt lat="43.72277" lon="6.97211">
        <ele>728</ele>
        <time>2011-02-08T20:08:03Z</time>
      </trkpt>
      <trkpt lat="43.7228" lon="6.97198">
        <ele>728</ele>
        <time>2011-02-08T20:08:06Z</time>
      </trkpt>
      <trkpt lat="43.72285" lon="6.97186">
        <ele>727</ele>
        <time>2011-02-08T20:08:09Z</time>
      </trkpt>
      <trkpt lat="43.72294" lon="6.97151">
        <ele>727</ele>
        <time>2011-02-08T20:08:18Z</time>
      </trkpt>
      <trkpt lat="43.72288" lon="6.97027">
        <ele>737</ele>
        <time>2011-02-08T20:08:52Z</time>
      </trkpt>
      <trkpt lat="43.72286" lon="6.97012">
        <ele>737</ele>
        <time>2011-02-08T20:08:56Z</time>
      </trkpt>
      <trkpt lat="43.72286" lon="6.97">
        <ele>739</ele>
        <time>2011-02-08T20:08:59Z</time>
      </trkpt>
      <trkpt lat="43.72285" lon="6.96987">
        <ele>739</ele>
        <time>2011-02-08T20:09:02Z</time>
      </trkpt>
      <trkpt lat="43.72284" lon="6.96954">
        <ele>741</ele>
        <time>2011-02-08T20:09:10Z</time>
      </trkpt>
      <trkpt lat="43.72284" lon="6.96941">
        <ele>741</ele>
        <time>2011-02-08T20:09:13Z</time>
      </trkpt>
      <trkpt lat="43.72284" lon="6.96929">
        <ele>742</ele>
        <time>2011-02-08T20:09:16Z</time>
      </trkpt>
      <trkpt lat="43.72284" lon="6.96917">
        <ele>742</ele>
        <time>2011-02-08T20:09:19Z</time>
      </trkpt>
      <trkpt lat="43.72282" lon="6.9687">
        <ele>745</ele>
        <time>2011-02-08T20:09:31Z</time>
      </trkpt>
      <trkpt lat="43.7228" lon="6.96858">
        <ele>745</ele>
        <time>2011-02-08T20:09:34Z</time>
      </trkpt>
      <trkpt lat="43.72278" lon="6.96846">
        <ele>746</ele>
        <time>2011-02-08T20:09:37Z</time>
      </trkpt>
      <trkpt lat="43.72275" lon="6.96818">
        <ele>746</ele>
        <time>2011-02-08T20:09:44Z</time>
      </trkpt>
      <trkpt lat="43.72274" lon="6.96803">
        <ele>747</ele>
        <time>2011-02-08T20:09:48Z</time>
      </trkpt>
      <trkpt lat="43.72275" lon="6.96791">
        <ele>747</ele>
        <time>2011-02-08T20:09:51Z</time>
      </trkpt>
      <trkpt lat="43.72283" lon="6.96766">
        <ele>748</ele>
        <time>2011-02-08T20:09:57Z</time>
      </trkpt>
      <trkpt lat="43.72305" lon="6.96748">
        <ele>750</ele>
        <time>2011-02-08T20:10:05Z</time>
      </trkpt>
      <trkpt lat="43.7232" lon="6.96745">
        <ele>751</ele>
        <time>2011-02-08T20:10:10Z</time>
      </trkpt>
      <trkpt lat="43.72345" lon="6.96755">
        <ele>751</ele>
        <time>2011-02-08T20:10:19Z</time>
      </trkpt>
      <trkpt lat="43.72351" lon="6.96763">
        <ele>752</ele>
        <time>2011-02-08T20:10:22Z</time>
      </trkpt>
      <trkpt lat="43.72357" lon="6.96774">
        <ele>752</ele>
        <time>2011-02-08T20:10:25Z</time>
      </trkpt>
      <trkpt lat="43.72362" lon="6.96789">
        <ele>754</ele>
        <time>2011-02-08T20:10:29Z</time>
      </trkpt>
      <trkpt lat="43.72368" lon="6.96812">
        <ele>754</ele>
        <time>2011-02-08T20:10:35Z</time>
      </trkpt>
      <trkpt lat="43.72374" lon="6.96835">
        <ele>756</ele>
        <time>2011-02-08T20:10:41Z</time>
      </trkpt>
      <trkpt lat="43.72382" lon="6.96864">
        <ele>756</ele>
        <time>2011-02-08T20:10:49Z</time>
      </trkpt>
      <trkpt lat="43.72386" lon="6.96874">
        <ele>757</ele>
        <time>2011-02-08T20:10:52Z</time>
      </trkpt>
      <trkpt lat="43.72389" lon="6.96885">
        <ele>756</ele>
        <time>2011-02-08T20:10:55Z</time>
      </trkpt>
      <trkpt lat="43.72396" lon="6.96906">
        <ele>759</ele>
        <time>2011-02-08T20:11:01Z</time>
      </trkpt>
      <trkpt lat="43.724" lon="6.96917">
        <ele>759</ele>
        <time>2011-02-08T20:11:04Z</time>
      </trkpt>
      <trkpt lat="43.7241" lon="6.9694">
        <ele>761</ele>
        <time>2011-02-08T20:11:11Z</time>
      </trkpt>
      <trkpt lat="43.72419" lon="6.9696">
        <ele>761</ele>
        <time>2011-02-08T20:11:17Z</time>
      </trkpt>
      <trkpt lat="43.7245" lon="6.96994">
        <ele>765</ele>
        <time>2011-02-08T20:11:31Z</time>
      </trkpt>
      <trkpt lat="43.72458" lon="6.96997">
        <ele>765</ele>
        <time>2011-02-08T20:11:34Z</time>
      </trkpt>
      <trkpt lat="43.72468" lon="6.97004">
        <ele>766</ele>
        <time>2011-02-08T20:11:38Z</time>
      </trkpt>
      <trkpt lat="43.72476" lon="6.97011">
        <ele>766</ele>
        <time>2011-02-08T20:11:41Z</time>
      </trkpt>
      <trkpt lat="43.72486" lon="6.9703">
        <ele>769</ele>
        <time>2011-02-08T20:11:47Z</time>
      </trkpt>
      <trkpt lat="43.72491" lon="6.97053">
        <ele>769</ele>
        <time>2011-02-08T20:11:53Z</time>
      </trkpt>
      <trkpt lat="43.72487" lon="6.97083">
        <ele>771</ele>
        <time>2011-02-08T20:12:01Z</time>
      </trkpt>
      <trkpt lat="43.72478" lon="6.97102">
        <ele>773</ele>
        <time>2011-02-08T20:12:07Z</time>
      </trkpt>
      <trkpt lat="43.72471" lon="6.97119">
        <ele>773</ele>
        <time>2011-02-08T20:12:12Z</time>
      </trkpt>
      <trkpt lat="43.72466" lon="6.97134">
        <ele>774</ele>
        <time>2011-02-08T20:12:16Z</time>
      </trkpt>
      <trkpt lat="43.72468" lon="6.97159">
        <ele>773</ele>
        <time>2011-02-08T20:12:23Z</time>
      </trkpt>
      <trkpt lat="43.72476" lon="6.97168">
        <ele>775</ele>
        <time>2011-02-08T20:12:27Z</time>
      </trkpt>
      <trkpt lat="43.72486" lon="6.9717">
        <ele>776</ele>
        <time>2011-02-08T20:12:31Z</time>
      </trkpt>
      <trkpt lat="43.72505" lon="6.97155">
        <ele>779</ele>
        <time>2011-02-08T20:12:39Z</time>
      </trkpt>
      <trkpt lat="43.7252" lon="6.97134">
        <ele>779</ele>
        <time>2011-02-08T20:12:47Z</time>
      </trkpt>
      <trkpt lat="43.72543" lon="6.97102">
        <ele>782</ele>
        <time>2011-02-08T20:13:00Z</time>
      </trkpt>
      <trkpt lat="43.7255" lon="6.97091">
        <ele>782</ele>
        <time>2011-02-08T20:13:04Z</time>
      </trkpt>
      <trkpt lat="43.72583" lon="6.97044">
        <ele>788</ele>
        <time>2011-02-08T20:13:22Z</time>
      </trkpt>
      <trkpt lat="43.72611" lon="6.96999">
        <ele>788</ele>
        <time>2011-02-08T20:13:38Z</time>
      </trkpt>
      <trkpt lat="43.72625" lon="6.96969">
        <ele>790</ele>
        <time>2011-02-08T20:13:48Z</time>
      </trkpt>
      <trkpt lat="43.72641" lon="6.96932">
        <ele>790</ele>
        <time>2011-02-08T20:14:01Z</time>
      </trkpt>
      <trkpt lat="43.72684" lon="6.96836">
        <ele>796</ele>
        <time>2011-02-08T20:14:36Z</time>
      </trkpt>
      <trkpt lat="43.72703" lon="6.96794">
        <ele>798</ele>
        <time>2011-02-08T20:14:50Z</time>
      </trkpt>
      <trkpt lat="43.72718" lon="6.9672">
        <ele>804</ele>
        <time>2011-02-08T20:15:13Z</time>
      </trkpt>
      <trkpt lat="43.7272" lon="6.967">
        <ele>804</ele>
        <time>2011-02-08T20:15:19Z</time>
      </trkpt>
      <trkpt lat="43.72726" lon="6.96663">
        <ele>806</ele>
        <time>2011-02-08T20:15:30Z</time>
      </trkpt>
      <trkpt lat="43.72728" lon="6.9665">
        <ele>806</ele>
        <time>2011-02-08T20:15:34Z</time>
      </trkpt>
      <trkpt lat="43.72732" lon="6.96603">
        <ele>809</ele>
        <time>2011-02-08T20:15:47Z</time>
      </trkpt>
      <trkpt lat="43.72735" lon="6.96565">
        <ele>809</ele>
        <time>2011-02-08T20:15:58Z</time>
      </trkpt>
      <trkpt lat="43.72735" lon="6.96522">
        <ele>812</ele>
        <time>2011-02-08T20:16:10Z</time>
      </trkpt>
      <trkpt lat="43.72735" lon="6.96508">
        <ele>812</ele>
        <time>2011-02-08T20:16:14Z</time>
      </trkpt>
      <trkpt lat="43.72733" lon="6.96455">
        <ele>816</ele>
        <time>2011-02-08T20:16:30Z</time>
      </trkpt>
      <trkpt lat="43.72733" lon="6.96438">
        <ele>816</ele>
        <time>2011-02-08T20:16:35Z</time>
      </trkpt>
      <trkpt lat="43.72729" lon="6.96348">
        <ele>821</ele>
        <time>2011-02-08T20:17:02Z</time>
      </trkpt>
      <trkpt lat="43.72729" lon="6.96327">
        <ele>821</ele>
        <time>2011-02-08T20:17:08Z</time>
      </trkpt>
      <trkpt lat="43.72729" lon="6.96312">
        <ele>822</ele>
        <time>2011-02-08T20:17:12Z</time>
      </trkpt>
      <trkpt lat="43.72729" lon="6.96284">
        <ele>822</ele>
        <time>2011-02-08T20:17:20Z</time>
      </trkpt>
      <trkpt lat="43.72729" lon="6.96256">
        <ele>824</ele>
        <time>2011-02-08T20:17:28Z</time>
      </trkpt>
      <trkpt lat="43.72731" lon="6.96242">
        <ele>824</ele>
        <time>2011-02-08T20:17:32Z</time>
      </trkpt>
      <trkpt lat="43.72743" lon="6.96207">
        <ele>827</ele>
        <time>2011-02-08T20:17:43Z</time>
      </trkpt>
      <trkpt lat="43.72748" lon="6.96194">
        <ele>827</ele>
        <time>2011-02-08T20:17:47Z</time>
      </trkpt>
      <trkpt lat="43.72757" lon="6.96176">
        <ele>829</ele>
        <time>2011-02-08T20:17:53Z</time>
      </trkpt>
      <trkpt lat="43.72769" lon="6.96155">
        <ele>829</ele>
        <time>2011-02-08T20:18:01Z</time>
      </trkpt>
      <trkpt lat="43.72776" lon="6.96145">
        <ele>831</ele>
        <time>2011-02-08T20:18:05Z</time>
      </trkpt>
      <trkpt lat="43.72785" lon="6.96132">
        <ele>831</ele>
        <time>2011-02-08T20:18:10Z</time>
      </trkpt>
      <trkpt lat="43.72792" lon="6.96124">
        <ele>833</ele>
        <time>2011-02-08T20:18:14Z</time>
      </trkpt>
      <trkpt lat="43.7281" lon="6.96106">
        <ele>835</ele>
        <time>2011-02-08T20:18:23Z</time>
      </trkpt>
      <trkpt lat="43.72819" lon="6.96099">
        <ele>835</ele>
        <time>2011-02-08T20:18:27Z</time>
      </trkpt>
      <trkpt lat="43.72828" lon="6.96093">
        <ele>836</ele>
        <time>2011-02-08T20:18:31Z</time>
      </trkpt>
      <trkpt lat="43.72847" lon="6.96082">
        <ele>836</ele>
        <time>2011-02-08T20:18:39Z</time>
      </trkpt>
      <trkpt lat="43.72921" lon="6.96037">
        <ele>842</ele>
        <time>2011-02-08T20:19:11Z</time>
      </trkpt>
      <trkpt lat="43.72931" lon="6.96032">
        <ele>843</ele>
        <time>2011-02-08T20:19:15Z</time>
      </trkpt>
      <trkpt lat="43.7294" lon="6.96027">
        <ele>843</ele>
        <time>2011-02-08T20:19:19Z</time>
      </trkpt>
      <trkpt lat="43.72992" lon="6.95998">
        <ele>846</ele>
        <time>2011-02-08T20:19:41Z</time>
      </trkpt>
      <trkpt lat="43.73021" lon="6.95985">
        <ele>850</ele>
        <time>2011-02-08T20:19:53Z</time>
      </trkpt>
      <trkpt lat="43.73031" lon="6.95983">
        <ele>850</ele>
        <time>2011-02-08T20:19:57Z</time>
      </trkpt>
      <trkpt lat="43.731" lon="6.95951">
        <ele>858</ele>
        <time>2011-02-08T20:20:27Z</time>
      </trkpt>
      <trkpt lat="43.73113" lon="6.95942">
        <ele>858</ele>
        <time>2011-02-08T20:20:33Z</time>
      </trkpt>
      <trkpt lat="43.73136" lon="6.95925">
        <ele>860</ele>
        <time>2011-02-08T20:20:43Z</time>
      </trkpt>
      <trkpt lat="43.73145" lon="6.9592">
        <ele>860</ele>
        <time>2011-02-08T20:20:47Z</time>
      </trkpt>
      <trkpt lat="43.73161" lon="6.9591">
        <ele>862</ele>
        <time>2011-02-08T20:20:54Z</time>
      </trkpt>
      <trkpt lat="43.7317" lon="6.95904">
        <ele>862</ele>
        <time>2011-02-08T20:20:58Z</time>
      </trkpt>
      <trkpt lat="43.73213" lon="6.95864">
        <ele>866</ele>
        <time>2011-02-08T20:21:19Z</time>
      </trkpt>
      <trkpt lat="43.73221" lon="6.95855">
        <ele>866</ele>
        <time>2011-02-08T20:21:23Z</time>
      </trkpt>
      <trkpt lat="43.73229" lon="6.95846">
        <ele>867</ele>
        <time>2011-02-08T20:21:27Z</time>
      </trkpt>
      <trkpt lat="43.73237" lon="6.95837">
        <ele>867</ele>
        <time>2011-02-08T20:21:31Z</time>
      </trkpt>
      <trkpt lat="43.73285" lon="6.95804">
        <ele>872</ele>
        <time>2011-02-08T20:21:52Z</time>
      </trkpt>
      <trkpt lat="43.73301" lon="6.95804">
        <ele>874</ele>
        <time>2011-02-08T20:21:58Z</time>
      </trkpt>
      <trkpt lat="43.73317" lon="6.95806">
        <ele>874</ele>
        <time>2011-02-08T20:22:04Z</time>
      </trkpt>
      <trkpt lat="43.73329" lon="6.95808">
        <ele>875</ele>
        <time>2011-02-08T20:22:09Z</time>
      </trkpt>
      <trkpt lat="43.73379" lon="6.95812">
        <ele>881</ele>
        <time>2011-02-08T20:22:29Z</time>
      </trkpt>
      <trkpt lat="43.73396" lon="6.958">
        <ele>880</ele>
        <time>2011-02-08T20:22:38Z</time>
      </trkpt>
      <trkpt lat="43.73373" lon="6.95791">
        <ele>885</ele>
        <time>2011-02-08T20:22:52Z</time>
      </trkpt>
      <trkpt lat="43.73365" lon="6.95771">
        <ele>891</ele>
        <time>2011-02-08T20:22:58Z</time>
      </trkpt>
      <trkpt lat="43.73364" lon="6.95749">
        <ele>892</ele>
        <time>2011-02-08T20:23:03Z</time>
      </trkpt>
      <trkpt lat="43.73384" lon="6.95675">
        <ele>882</ele>
        <time>2011-02-08T20:23:15Z</time>
      </trkpt>
      <trkpt lat="43.73392" lon="6.95657">
        <ele>881</ele>
        <time>2011-02-08T20:23:19Z</time>
      </trkpt>
      <trkpt lat="43.73398" lon="6.95646">
        <ele>882</ele>
        <time>2011-02-08T20:23:22Z</time>
      </trkpt>
      <trkpt lat="43.73404" lon="6.95635">
        <ele>882</ele>
        <time>2011-02-08T20:23:25Z</time>
      </trkpt>
      <trkpt lat="43.73411" lon="6.95626">
        <ele>883</ele>
        <time>2011-02-08T20:23:28Z</time>
      </trkpt>
      <trkpt lat="43.7342" lon="6.95616">
        <ele>883</ele>
        <time>2011-02-08T20:23:32Z</time>
      </trkpt>
      <trkpt lat="43.73427" lon="6.95609">
        <ele>885</ele>
        <time>2011-02-08T20:23:35Z</time>
      </trkpt>
      <trkpt lat="43.73455" lon="6.95575">
        <ele>888</ele>
        <time>2011-02-08T20:23:49Z</time>
      </trkpt>
      <trkpt lat="43.73459" lon="6.95553">
        <ele>890</ele>
        <time>2011-02-08T20:23:56Z</time>
      </trkpt>
      <trkpt lat="43.73455" lon="6.95505">
        <ele>898</ele>
        <time>2011-02-08T20:24:11Z</time>
      </trkpt>
      <trkpt lat="43.73457" lon="6.95485">
        <ele>897</ele>
        <time>2011-02-08T20:24:16Z</time>
      </trkpt>
      <trkpt lat="43.73459" lon="6.95469">
        <ele>898</ele>
        <time>2011-02-08T20:24:20Z</time>
      </trkpt>
      <trkpt lat="43.73459" lon="6.95454">
        <ele>898</ele>
        <time>2011-02-08T20:24:24Z</time>
      </trkpt>
      <trkpt lat="43.7346" lon="6.95439">
        <ele>899</ele>
        <time>2011-02-08T20:24:28Z</time>
      </trkpt>
      <trkpt lat="43.7346" lon="6.95425">
        <ele>899</ele>
        <time>2011-02-08T20:24:32Z</time>
      </trkpt>
      <trkpt lat="43.7346" lon="6.95411">
        <ele>901</ele>
        <time>2011-02-08T20:24:36Z</time>
      </trkpt>
      <trkpt lat="43.73466" lon="6.95356">
        <ele>901</ele>
        <time>2011-02-08T20:24:52Z</time>
      </trkpt>
      <trkpt lat="43.73493" lon="6.95293">
        <ele>906</ele>
        <time>2011-02-08T20:25:14Z</time>
      </trkpt>
      <trkpt lat="43.73499" lon="6.95284">
        <ele>906</ele>
        <time>2011-02-08T20:25:18Z</time>
      </trkpt>
      <trkpt lat="43.7352" lon="6.95255">
        <ele>908</ele>
        <time>2011-02-08T20:25:30Z</time>
      </trkpt>
      <trkpt lat="43.7353" lon="6.9524">
        <ele>908</ele>
        <time>2011-02-08T20:25:36Z</time>
      </trkpt>
      <trkpt lat="43.73537" lon="6.95231">
        <ele>909</ele>
        <time>2011-02-08T20:25:40Z</time>
      </trkpt>
      <trkpt lat="43.73544" lon="6.95221">
        <ele>908</ele>
        <time>2011-02-08T20:25:44Z</time>
      </trkpt>
      <trkpt lat="43.73558" lon="6.95201">
        <ele>910</ele>
        <time>2011-02-08T20:25:52Z</time>
      </trkpt>
      <trkpt lat="43.73566" lon="6.95192">
        <ele>910</ele>
        <time>2011-02-08T20:25:56Z</time>
      </trkpt>
      <trkpt lat="43.73615" lon="6.95143">
        <ele>917</ele>
        <time>2011-02-08T20:26:22Z</time>
      </trkpt>
      <trkpt lat="43.73616" lon="6.95129">
        <ele>919</ele>
        <time>2011-02-08T20:26:27Z</time>
      </trkpt>
      <trkpt lat="43.73607" lon="6.95116">
        <ele>922</ele>
        <time>2011-02-08T20:26:33Z</time>
      </trkpt>
      <trkpt lat="43.73598" lon="6.95115">
        <ele>924</ele>
        <time>2011-02-08T20:26:36Z</time>
      </trkpt>
      <trkpt lat="43.73584" lon="6.95116">
        <ele>925</ele>
        <time>2011-02-08T20:26:41Z</time>
      </trkpt>
      <trkpt lat="43.73573" lon="6.95116">
        <ele>927</ele>
        <time>2011-02-08T20:26:45Z</time>
      </trkpt>
      <trkpt lat="43.73563" lon="6.95115">
        <ele>926</ele>
        <time>2011-02-08T20:26:49Z</time>
      </trkpt>
      <trkpt lat="43.73533" lon="6.95113">
        <ele>927</ele>
        <time>2011-02-08T20:27:01Z</time>
      </trkpt>
      <trkpt lat="43.73523" lon="6.95112">
        <ele>926</ele>
        <time>2011-02-08T20:27:05Z</time>
      </trkpt>
      <trkpt lat="43.73513" lon="6.95112">
        <ele>926</ele>
        <time>2011-02-08T20:27:09Z</time>
      </trkpt>
      <trkpt lat="43.73503" lon="6.95111">
        <ele>928</ele>
        <time>2011-02-08T20:27:13Z</time>
      </trkpt>
      <trkpt lat="43.73486" lon="6.9511">
        <ele>929</ele>
        <time>2011-02-08T20:27:20Z</time>
      </trkpt>
      <trkpt lat="43.73465" lon="6.95109">
        <ele>929</ele>
        <time>2011-02-08T20:27:28Z</time>
      </trkpt>
      <trkpt lat="43.73428" lon="6.95097">
        <ele>932</ele>
        <time>2011-02-08T20:27:44Z</time>
      </trkpt>
      <trkpt lat="43.73419" lon="6.95091">
        <ele>932</ele>
        <time>2011-02-08T20:27:48Z</time>
      </trkpt>
      <trkpt lat="43.7341" lon="6.95087">
        <ele>933</ele>
        <time>2011-02-08T20:27:52Z</time>
      </trkpt>
      <trkpt lat="43.73392" lon="6.9509">
        <ele>933</ele>
        <time>2011-02-08T20:28:00Z</time>
      </trkpt>
      <trkpt lat="43.73378" lon="6.95112">
        <ele>936</ele>
        <time>2011-02-08T20:28:11Z</time>
      </trkpt>
      <trkpt lat="43.73369" lon="6.95133">
        <ele>939</ele>
        <time>2011-02-08T20:28:19Z</time>
      </trkpt>
      <trkpt lat="43.73361" lon="6.95146">
        <ele>940</ele>
        <time>2011-02-08T20:28:24Z</time>
      </trkpt>
      <trkpt lat="43.73352" lon="6.95156">
        <ele>940</ele>
        <time>2011-02-08T20:28:28Z</time>
      </trkpt>
      <trkpt lat="43.73335" lon="6.95171">
        <ele>943</ele>
        <time>2011-02-08T20:28:36Z</time>
      </trkpt>
      <trkpt lat="43.73325" lon="6.95177">
        <ele>943</ele>
        <time>2011-02-08T20:28:40Z</time>
      </trkpt>
      <trkpt lat="43.73239" lon="6.95181">
        <ele>951</ele>
        <time>2011-02-08T20:29:15Z</time>
      </trkpt>
      <trkpt lat="43.73207" lon="6.95175">
        <ele>954</ele>
        <time>2011-02-08T20:29:28Z</time>
      </trkpt>
      <trkpt lat="43.73188" lon="6.95177">
        <ele>954</ele>
        <time>2011-02-08T20:29:36Z</time>
      </trkpt>
      <trkpt lat="43.73171" lon="6.95194">
        <ele>956</ele>
        <time>2011-02-08T20:29:45Z</time>
      </trkpt>
      <trkpt lat="43.73168" lon="6.95218">
        <ele>962</ele>
        <time>2011-02-08T20:29:53Z</time>
      </trkpt>
      <trkpt lat="43.73171" lon="6.9524">
        <ele>967</ele>
        <time>2011-02-08T20:30:00Z</time>
      </trkpt>
      <trkpt lat="43.7317" lon="6.95264">
        <ele>969</ele>
        <time>2011-02-08T20:30:07Z</time>
      </trkpt>
      <trkpt lat="43.73154" lon="6.95304">
        <ele>969</ele>
        <time>2011-02-08T20:30:19Z</time>
      </trkpt>
      <trkpt lat="43.73148" lon="6.95313">
        <ele>968</ele>
        <time>2011-02-08T20:30:22Z</time>
      </trkpt>
      <trkpt lat="43.7313" lon="6.95337">
        <ele>968</ele>
        <time>2011-02-08T20:30:31Z</time>
      </trkpt>
      <trkpt lat="43.73113" lon="6.9534">
        <ele>968</ele>
        <time>2011-02-08T20:30:38Z</time>
      </trkpt>
      <trkpt lat="43.73108" lon="6.95329">
        <ele>968</ele>
        <time>2011-02-08T20:30:42Z</time>
      </trkpt>
      <trkpt lat="43.7311" lon="6.95314">
        <ele>969</ele>
        <time>2011-02-08T20:30:46Z</time>
      </trkpt>
      <trkpt lat="43.73118" lon="6.95294">
        <ele>972</ele>
        <time>2011-02-08T20:30:52Z</time>
      </trkpt>
      <trkpt lat="43.73124" lon="6.95272">
        <ele>973</ele>
        <time>2011-02-08T20:30:59Z</time>
      </trkpt>
      <trkpt lat="43.73126" lon="6.95246">
        <ele>973</ele>
        <time>2011-02-08T20:31:08Z</time>
      </trkpt>
      <trkpt lat="43.7311" lon="6.95253">
        <ele>975</ele>
        <time>2011-02-08T20:31:18Z</time>
      </trkpt>
      <trkpt lat="43.73099" lon="6.95268">
        <ele>976</ele>
        <time>2011-02-08T20:31:25Z</time>
      </trkpt>
      <trkpt lat="43.73089" lon="6.95286">
        <ele>978</ele>
        <time>2011-02-08T20:31:32Z</time>
      </trkpt>
      <trkpt lat="43.73077" lon="6.95288">
        <ele>978</ele>
        <time>2011-02-08T20:31:37Z</time>
      </trkpt>
      <trkpt lat="43.73064" lon="6.95284">
        <ele>980</ele>
        <time>2011-02-08T20:31:42Z</time>
      </trkpt>
      <trkpt lat="43.73035" lon="6.95273">
        <ele>982</ele>
        <time>2011-02-08T20:31:53Z</time>
      </trkpt>
      <trkpt lat="43.73014" lon="6.95267">
        <ele>982</ele>
        <time>2011-02-08T20:32:00Z</time>
      </trkpt>
      <trkpt lat="43.73006" lon="6.95269">
        <ele>983</ele>
        <time>2011-02-08T20:32:03Z</time>
      </trkpt>
      <trkpt lat="43.72989" lon="6.9527">
        <ele>983</ele>
        <time>2011-02-08T20:32:09Z</time>
      </trkpt>
      <trkpt lat="43.72955" lon="6.95255">
        <ele>987</ele>
        <time>2011-02-08T20:32:26Z</time>
      </trkpt>
      <trkpt lat="43.72955" lon="6.95242">
        <ele>987</ele>
        <time>2011-02-08T20:32:31Z</time>
      </trkpt>
      <trkpt lat="43.72977" lon="6.952">
        <ele>992</ele>
        <time>2011-02-08T20:32:51Z</time>
      </trkpt>
      <trkpt lat="43.72993" lon="6.95182">
        <ele>995</ele>
        <time>2011-02-08T20:33:02Z</time>
      </trkpt>
      <trkpt lat="43.72996" lon="6.95168">
        <ele>995</ele>
        <time>2011-02-08T20:33:08Z</time>
      </trkpt>
      <trkpt lat="43.72988" lon="6.9515">
        <ele>997</ele>
        <time>2011-02-08T20:33:16Z</time>
      </trkpt>
      <trkpt lat="43.72974" lon="6.95148">
        <ele>1000</ele>
        <time>2011-02-08T20:33:23Z</time>
      </trkpt>
      <trkpt lat="43.72965" lon="6.95148">
        <ele>1001</ele>
        <time>2011-02-08T20:33:28Z</time>
      </trkpt>
      <trkpt lat="43.72957" lon="6.95149">
        <ele>1004</ele>
        <time>2011-02-08T20:33:33Z</time>
      </trkpt>
      <trkpt lat="43.72942" lon="6.95142">
        <ele>1006</ele>
        <time>2011-02-08T20:33:41Z</time>
      </trkpt>
      <trkpt lat="43.72927" lon="6.95139">
        <ele>1006</ele>
        <time>2011-02-08T20:33:50Z</time>
      </trkpt>
      <trkpt lat="43.72909" lon="6.95137">
        <ele>1008</ele>
        <time>2011-02-08T20:34:00Z</time>
      </trkpt>
      <trkpt lat="43.72901" lon="6.95136">
        <ele>1008</ele>
        <time>2011-02-08T20:34:04Z</time>
      </trkpt>
      <trkpt lat="43.72893" lon="6.95131">
        <ele>1009</ele>
        <time>2011-02-08T20:34:08Z</time>
      </trkpt>
      <trkpt lat="43.72885" lon="6.95124">
        <ele>1009</ele>
        <time>2011-02-08T20:34:13Z</time>
      </trkpt>
      <trkpt lat="43.72889" lon="6.95106">
        <ele>1011</ele>
        <time>2011-02-08T20:34:21Z</time>
      </trkpt>
      <trkpt lat="43.72899" lon="6.95095">
        <ele>1013</ele>
        <time>2011-02-08T20:34:28Z</time>
      </trkpt>
      <trkpt lat="43.72906" lon="6.95084">
        <ele>1013</ele>
        <time>2011-02-08T20:34:33Z</time>
      </trkpt>
      <trkpt lat="43.72914" lon="6.95074">
        <ele>1014</ele>
        <time>2011-02-08T20:34:38Z</time>
      </trkpt>
      <trkpt lat="43.72923" lon="6.95065">
        <ele>1014</ele>
        <time>2011-02-08T20:34:43Z</time>
      </trkpt>
      <trkpt lat="43.72947" lon="6.95037">
        <ele>1017</ele>
        <time>2011-02-08T20:34:59Z</time>
      </trkpt>
      <trkpt lat="43.72966" lon="6.95012">
        <ele>1023</ele>
        <time>2011-02-08T20:35:15Z</time>
      </trkpt>
      <trkpt lat="43.72976" lon="6.94992">
        <ele>1024</ele>
        <time>2011-02-08T20:35:24Z</time>
      </trkpt>
      <trkpt lat="43.72982" lon="6.9498">
        <ele>1024</ele>
        <time>2011-02-08T20:35:29Z</time>
      </trkpt>
      <trkpt lat="43.72987" lon="6.9497">
        <ele>1023</ele>
        <time>2011-02-08T20:35:33Z</time>
      </trkpt>
      <trkpt lat="43.7299" lon="6.94956">
        <ele>1023</ele>
        <time>2011-02-08T20:35:38Z</time>
      </trkpt>
      <trkpt lat="43.72979" lon="6.94939">
        <ele>1026</ele>
        <time>2011-02-08T20:35:49Z</time>
      </trkpt>
      <trkpt lat="43.72967" lon="6.94937">
        <ele>1029</ele>
        <time>2011-02-08T20:35:56Z</time>
      </trkpt>
      <trkpt lat="43.7295" lon="6.94933">
        <ele>1030</ele>
        <time>2011-02-08T20:36:05Z</time>
      </trkpt>
      <trkpt lat="43.72936" lon="6.94932">
        <ele>1029</ele>
        <time>2011-02-08T20:36:12Z</time>
      </trkpt>
      <trkpt lat="43.72926" lon="6.94932">
        <ele>1030</ele>
        <time>2011-02-08T20:36:17Z</time>
      </trkpt>
      <trkpt lat="43.72901" lon="6.94927">
        <ele>1030</ele>
        <time>2011-02-08T20:36:29Z</time>
      </trkpt>
      <trkpt lat="43.72851" lon="6.949">
        <ele>1035</ele>
        <time>2011-02-08T20:36:57Z</time>
      </trkpt>
      <trkpt lat="43.72852" lon="6.94876">
        <ele>1037</ele>
        <time>2011-02-08T20:37:07Z</time>
      </trkpt>
      <trkpt lat="43.72856" lon="6.94854">
        <ele>1037</ele>
        <time>2011-02-08T20:37:17Z</time>
      </trkpt>
      <trkpt lat="43.72848" lon="6.94843">
        <ele>1038</ele>
        <time>2011-02-08T20:37:23Z</time>
      </trkpt>
      <trkpt lat="43.72833" lon="6.94822">
        <ele>1040</ele>
        <time>2011-02-08T20:37:33Z</time>
      </trkpt>
      <trkpt lat="43.72831" lon="6.94809">
        <ele>1041</ele>
        <time>2011-02-08T20:37:37Z</time>
      </trkpt>
      <trkpt lat="43.72836" lon="6.94783">
        <ele>1045</ele>
        <time>2011-02-08T20:37:48Z</time>
      </trkpt>
      <trkpt lat="43.72828" lon="6.94764">
        <ele>1048</ele>
        <time>2011-02-08T20:37:58Z</time>
      </trkpt>
      <trkpt lat="43.72819" lon="6.94745">
        <ele>1049</ele>
        <time>2011-02-08T20:38:07Z</time>
      </trkpt>
      <trkpt lat="43.7281" lon="6.94728">
        <ele>1049</ele>
        <time>2011-02-08T20:38:15Z</time>
      </trkpt>
      <trkpt lat="43.72798" lon="6.94709">
        <ele>1053</ele>
        <time>2011-02-08T20:38:25Z</time>
      </trkpt>
      <trkpt lat="43.72788" lon="6.9467">
        <ele>1055</ele>
        <time>2011-02-08T20:38:41Z</time>
      </trkpt>
      <trkpt lat="43.72779" lon="6.9464">
        <ele>1055</ele>
        <time>2011-02-08T20:38:52Z</time>
      </trkpt>
      <trkpt lat="43.72764" lon="6.94626">
        <ele>1057</ele>
        <time>2011-02-08T20:39:01Z</time>
      </trkpt>
      <trkpt lat="43.72754" lon="6.94628">
        <ele>1059</ele>
        <time>2011-02-08T20:39:06Z</time>
      </trkpt>
      <trkpt lat="43.72745" lon="6.94638">
        <ele>1059</ele>
        <time>2011-02-08T20:39:11Z</time>
      </trkpt>
      <trkpt lat="43.7269" lon="6.94714">
        <ele>1065</ele>
        <time>2011-02-08T20:39:42Z</time>
      </trkpt>
      <trkpt lat="43.72659" lon="6.94732">
        <ele>1065</ele>
        <time>2011-02-08T20:39:49Z</time>
      </trkpt>
      <trkpt lat="43.72643" lon="6.94732">
        <ele>1066</ele>
        <time>2011-02-08T20:39:52Z</time>
      </trkpt>
      <trkpt lat="43.72624" lon="6.94736">
        <ele>1066</ele>
        <time>2011-02-08T20:39:55Z</time>
      </trkpt>
      <trkpt lat="43.72592" lon="6.94758">
        <ele>1064</ele>
        <time>2011-02-08T20:40:01Z</time>
      </trkpt>
      <trkpt lat="43.72584" lon="6.94774">
        <ele>1064</ele>
        <time>2011-02-08T20:40:04Z</time>
      </trkpt>
      <trkpt lat="43.72582" lon="6.94795">
        <ele>1063</ele>
        <time>2011-02-08T20:40:08Z</time>
      </trkpt>
      <trkpt lat="43.72571" lon="6.94813">
        <ele>1064</ele>
        <time>2011-02-08T20:40:15Z</time>
      </trkpt>
      <trkpt lat="43.72556" lon="6.9482">
        <ele>1062</ele>
        <time>2011-02-08T20:40:25Z</time>
      </trkpt>
      <trkpt lat="43.72526" lon="6.94799">
        <ele>1059</ele>
        <time>2011-02-08T20:40:37Z</time>
      </trkpt>
      <trkpt lat="43.72511" lon="6.94781">
        <ele>1059</ele>
        <time>2011-02-08T20:40:40Z</time>
      </trkpt>
      <trkpt lat="43.72431" lon="6.94751">
        <ele>1050</ele>
        <time>2011-02-08T20:40:49Z</time>
      </trkpt>
      <trkpt lat="43.72237" lon="6.94706">
        <ele>1020</ele>
        <time>2011-02-08T20:41:08Z</time>
      </trkpt>
      <trkpt lat="43.72064" lon="6.9454">
        <ele>997</ele>
        <time>2011-02-08T20:41:41Z</time>
      </trkpt>
      <trkpt lat="43.72033" lon="6.94518">
        <ele>997</ele>
        <time>2011-02-08T20:41:49Z</time>
      </trkpt>
      <trkpt lat="43.72025" lon="6.94512">
        <ele>996</ele>
        <time>2011-02-08T20:41:51Z</time>
      </trkpt>
      <trkpt lat="43.71991" lon="6.94484">
        <ele>996</ele>
        <time>2011-02-08T20:41:59Z</time>
      </trkpt>
      <trkpt lat="43.71971" lon="6.94482">
        <ele>996</ele>
        <time>2011-02-08T20:42:02Z</time>
      </trkpt>
      <trkpt lat="43.71953" lon="6.94473">
        <ele>995</ele>
        <time>2011-02-08T20:42:05Z</time>
      </trkpt>
      <trkpt lat="43.71941" lon="6.94464">
        <ele>996</ele>
        <time>2011-02-08T20:42:09Z</time>
      </trkpt>
      <trkpt lat="43.71931" lon="6.94469">
        <ele>994</ele>
        <time>2011-02-08T20:42:17Z</time>
      </trkpt>
      <trkpt lat="43.71939" lon="6.94478">
        <ele>987</ele>
        <time>2011-02-08T20:42:43Z</time>
      </trkpt>
      <trkpt lat="43.7194" lon="6.94493">
        <ele>987</ele>
        <time>2011-02-08T20:42:48Z</time>
      </trkpt>
      <trkpt lat="43.71934" lon="6.94541">
        <ele>981</ele>
        <time>2011-02-08T20:43:05Z</time>
      </trkpt>
      <trkpt lat="43.71921" lon="6.94572">
        <ele>977</ele>
        <time>2011-02-08T20:43:14Z</time>
      </trkpt>
      <trkpt lat="43.71914" lon="6.94584">
        <ele>977</ele>
        <time>2011-02-08T20:43:17Z</time>
      </trkpt>
      <trkpt lat="43.71901" lon="6.94599">
        <ele>976</ele>
        <time>2011-02-08T20:43:22Z</time>
      </trkpt>
      <trkpt lat="43.71893" lon="6.94604">
        <ele>976</ele>
        <time>2011-02-08T20:43:30Z</time>
      </trkpt>
      <trkpt lat="43.71867" lon="6.946">
        <ele>974</ele>
        <time>2011-02-08T20:43:40Z</time>
      </trkpt>
      <trkpt lat="43.71857" lon="6.9461">
        <ele>974</ele>
        <time>2011-02-08T20:43:44Z</time>
      </trkpt>
      <trkpt lat="43.71846" lon="6.94614">
        <ele>972</ele>
        <time>2011-02-08T20:43:48Z</time>
      </trkpt>
      <trkpt lat="43.71767" lon="6.94664">
        <ele>964</ele>
        <time>2011-02-08T20:44:22Z</time>
      </trkpt>
      <trkpt lat="43.71731" lon="6.94697">
        <ele>958</ele>
        <time>2011-02-08T20:44:35Z</time>
      </trkpt>
      <trkpt lat="43.71734" lon="6.94722">
        <ele>954</ele>
        <time>2011-02-08T20:44:45Z</time>
      </trkpt>
      <trkpt lat="43.71731" lon="6.94814">
        <ele>954</ele>
        <time>2011-02-08T20:45:12Z</time>
      </trkpt>
      <trkpt lat="43.71721" lon="6.94842">
        <ele>952</ele>
        <time>2011-02-08T20:45:22Z</time>
      </trkpt>
      <trkpt lat="43.71703" lon="6.94882">
        <ele>946</ele>
        <time>2011-02-08T20:45:34Z</time>
      </trkpt>
      <trkpt lat="43.71696" lon="6.94906">
        <ele>946</ele>
        <time>2011-02-08T20:45:40Z</time>
      </trkpt>
      <trkpt lat="43.71693" lon="6.94919">
        <ele>945</ele>
        <time>2011-02-08T20:45:43Z</time>
      </trkpt>
      <trkpt lat="43.71647" lon="6.95002">
        <ele>941</ele>
        <time>2011-02-08T20:46:12Z</time>
      </trkpt>
      <trkpt lat="43.71653" lon="6.95025">
        <ele>941</ele>
        <time>2011-02-08T20:46:28Z</time>
      </trkpt>
      <trkpt lat="43.71654" lon="6.95048">
        <ele>943</ele>
        <time>2011-02-08T20:46:34Z</time>
      </trkpt>
      <trkpt lat="43.71647" lon="6.95073">
        <ele>944</ele>
        <time>2011-02-08T20:46:41Z</time>
      </trkpt>
      <trkpt lat="43.71627" lon="6.95116">
        <ele>944</ele>
        <time>2011-02-08T20:46:54Z</time>
      </trkpt>
      <trkpt lat="43.71601" lon="6.95145">
        <ele>942</ele>
        <time>2011-02-08T20:47:04Z</time>
      </trkpt>
      <trkpt lat="43.71589" lon="6.95159">
        <ele>942</ele>
        <time>2011-02-08T20:47:10Z</time>
      </trkpt>
      <trkpt lat="43.71575" lon="6.95173">
        <ele>941</ele>
        <time>2011-02-08T20:47:16Z</time>
      </trkpt>
      <trkpt lat="43.71559" lon="6.95184">
        <ele>942</ele>
        <time>2011-02-08T20:47:22Z</time>
      </trkpt>
      <trkpt lat="43.71541" lon="6.95191">
        <ele>942</ele>
        <time>2011-02-08T20:47:27Z</time>
      </trkpt>
      <trkpt lat="43.71524" lon="6.9519">
        <ele>944</ele>
        <time>2011-02-08T20:47:31Z</time>
      </trkpt>
      <trkpt lat="43.71509" lon="6.9519">
        <ele>944</ele>
        <time>2011-02-08T20:47:35Z</time>
      </trkpt>
      <trkpt lat="43.71389" lon="6.952">
        <ele>924</ele>
        <time>2011-02-08T20:48:06Z</time>
      </trkpt>
      <trkpt lat="43.7138" lon="6.95199">
        <ele>918</ele>
        <time>2011-02-08T20:48:15Z</time>
      </trkpt>
      <trkpt lat="43.71352" lon="6.95219">
        <ele>914</ele>
        <time>2011-02-08T20:48:24Z</time>
      </trkpt>
      <trkpt lat="43.71303" lon="6.95259">
        <ele>910</ele>
        <time>2011-02-08T20:48:36Z</time>
      </trkpt>
      <trkpt lat="43.71288" lon="6.95272">
        <ele>910</ele>
        <time>2011-02-08T20:48:40Z</time>
      </trkpt>
      <trkpt lat="43.71175" lon="6.95332">
        <ele>893</ele>
        <time>2011-02-08T20:49:12Z</time>
      </trkpt>
      <trkpt lat="43.71082" lon="6.95399">
        <ele>873</ele>
        <time>2011-02-08T20:49:40Z</time>
      </trkpt>
      <trkpt lat="43.71041" lon="6.95396">
        <ele>865</ele>
        <time>2011-02-08T20:49:52Z</time>
      </trkpt>
      <trkpt lat="43.70988" lon="6.95422">
        <ele>853</ele>
        <time>2011-02-08T20:50:08Z</time>
      </trkpt>
      <trkpt lat="43.7098" lon="6.95429">
        <ele>853</ele>
        <time>2011-02-08T20:50:10Z</time>
      </trkpt>
      <trkpt lat="43.70893" lon="6.95493">
        <ele>836</ele>
        <time>2011-02-08T20:50:40Z</time>
      </trkpt>
      <trkpt lat="43.70882" lon="6.95513">
        <ele>832</ele>
        <time>2011-02-08T20:50:45Z</time>
      </trkpt>
      <trkpt lat="43.70864" lon="6.95509">
        <ele>828</ele>
        <time>2011-02-08T20:50:50Z</time>
      </trkpt>
      <trkpt lat="43.70852" lon="6.95527">
        <ele>823</ele>
        <time>2011-02-08T20:50:58Z</time>
      </trkpt>
      <trkpt lat="43.70843" lon="6.95548">
        <ele>821</ele>
        <time>2011-02-08T20:51:02Z</time>
      </trkpt>
      <trkpt lat="43.70831" lon="6.95655">
        <ele>816</ele>
        <time>2011-02-08T20:51:13Z</time>
      </trkpt>
      <trkpt lat="43.70836" lon="6.95701">
        <ele>812</ele>
        <time>2011-02-08T20:51:18Z</time>
      </trkpt>
      <trkpt lat="43.70845" lon="6.95721">
        <ele>810</ele>
        <time>2011-02-08T20:51:21Z</time>
      </trkpt>
      <trkpt lat="43.70835" lon="6.95753">
        <ele>804</ele>
        <time>2011-02-08T20:51:26Z</time>
      </trkpt>
      <trkpt lat="43.70803" lon="6.95827">
        <ele>792</ele>
        <time>2011-02-08T20:51:42Z</time>
      </trkpt>
      <trkpt lat="43.70792" lon="6.95834">
        <ele>790</ele>
        <time>2011-02-08T20:51:46Z</time>
      </trkpt>
      <trkpt lat="43.70773" lon="6.95854">
        <ele>791</ele>
        <time>2011-02-08T20:51:53Z</time>
      </trkpt>
      <trkpt lat="43.70755" lon="6.95865">
        <ele>790</ele>
        <time>2011-02-08T20:51:57Z</time>
      </trkpt>
      <trkpt lat="43.70737" lon="6.95882">
        <ele>787</ele>
        <time>2011-02-08T20:52:02Z</time>
      </trkpt>
      <trkpt lat="43.70721" lon="6.95892">
        <ele>786</ele>
        <time>2011-02-08T20:52:06Z</time>
      </trkpt>
      <trkpt lat="43.70651" lon="6.95957">
        <ele>768</ele>
        <time>2011-02-08T20:52:25Z</time>
      </trkpt>
      <trkpt lat="43.70646" lon="6.95978">
        <ele>764</ele>
        <time>2011-02-08T20:52:31Z</time>
      </trkpt>
      <trkpt lat="43.7065" lon="6.96001">
        <ele>759</ele>
        <time>2011-02-08T20:52:39Z</time>
      </trkpt>
      <trkpt lat="43.70654" lon="6.96036">
        <ele>757</ele>
        <time>2011-02-08T20:52:47Z</time>
      </trkpt>
      <trkpt lat="43.70662" lon="6.96064">
        <ele>759</ele>
        <time>2011-02-08T20:52:54Z</time>
      </trkpt>
      <trkpt lat="43.70677" lon="6.96105">
        <ele>757</ele>
        <time>2011-02-08T20:53:02Z</time>
      </trkpt>
      <trkpt lat="43.70684" lon="6.9612">
        <ele>758</ele>
        <time>2011-02-08T20:53:07Z</time>
      </trkpt>
      <trkpt lat="43.70716" lon="6.96229">
        <ele>760</ele>
        <time>2011-02-08T20:53:31Z</time>
      </trkpt>
      <trkpt lat="43.70724" lon="6.96262">
        <ele>759</ele>
        <time>2011-02-08T20:53:36Z</time>
      </trkpt>
      <trkpt lat="43.70723" lon="6.96318">
        <ele>756</ele>
        <time>2011-02-08T20:53:41Z</time>
      </trkpt>
      <trkpt lat="43.70713" lon="6.96442">
        <ele>753</ele>
        <time>2011-02-08T20:53:58Z</time>
      </trkpt>
      <trkpt lat="43.70723" lon="6.96462">
        <ele>751</ele>
        <time>2011-02-08T20:54:02Z</time>
      </trkpt>
      <trkpt lat="43.70741" lon="6.96503">
        <ele>750</ele>
        <time>2011-02-08T20:54:10Z</time>
      </trkpt>
      <trkpt lat="43.70746" lon="6.96547">
        <ele>734</ele>
        <time>2011-02-08T20:54:54Z</time>
      </trkpt>
      <trkpt lat="43.70751" lon="6.96576">
        <ele>736</ele>
        <time>2011-02-08T20:55:03Z</time>
      </trkpt>
      <trkpt lat="43.70777" lon="6.96631">
        <ele>742</ele>
        <time>2011-02-08T20:55:15Z</time>
      </trkpt>
      <trkpt lat="43.70828" lon="6.96743">
        <ele>730</ele>
        <time>2011-02-08T20:55:33Z</time>
      </trkpt>
      <trkpt lat="43.7088" lon="6.96773">
        <ele>717</ele>
        <time>2011-02-08T20:55:45Z</time>
      </trkpt>
      <trkpt lat="43.70905" lon="6.96825">
        <ele>706</ele>
        <time>2011-02-08T20:55:55Z</time>
      </trkpt>
      <trkpt lat="43.70922" lon="6.96887">
        <ele>697</ele>
        <time>2011-02-08T20:56:03Z</time>
      </trkpt>
      <trkpt lat="43.70929" lon="6.96928">
        <ele>692</ele>
        <time>2011-02-08T20:56:10Z</time>
      </trkpt>
      <trkpt lat="43.70922" lon="6.96987">
        <ele>687</ele>
        <time>2011-02-08T20:56:22Z</time>
      </trkpt>
      <trkpt lat="43.70896" lon="6.97063">
        <ele>677</ele>
        <time>2011-02-08T20:56:38Z</time>
      </trkpt>
      <trkpt lat="43.70881" lon="6.97074">
        <ele>675</ele>
        <time>2011-02-08T20:56:44Z</time>
      </trkpt>
      <trkpt lat="43.70865" lon="6.97079">
        <ele>675</ele>
        <time>2011-02-08T20:56:49Z</time>
      </trkpt>
      <trkpt lat="43.70849" lon="6.97085">
        <ele>674</ele>
        <time>2011-02-08T20:56:54Z</time>
      </trkpt>
      <trkpt lat="43.7075" lon="6.97087">
        <ele>673</ele>
        <time>2011-02-08T20:57:13Z</time>
      </trkpt>
      <trkpt lat="43.70688" lon="6.97083">
        <ele>672</ele>
        <time>2011-02-08T20:57:22Z</time>
      </trkpt>
      <trkpt lat="43.70511" lon="6.97062">
        <ele>657</ele>
        <time>2011-02-08T20:57:55Z</time>
      </trkpt>
      <trkpt lat="43.70461" lon="6.97015">
        <ele>653</ele>
        <time>2011-02-08T20:58:08Z</time>
      </trkpt>
      <trkpt lat="43.70448" lon="6.96997">
        <ele>650</ele>
        <time>2011-02-08T20:58:12Z</time>
      </trkpt>
      <trkpt lat="43.70423" lon="6.96969">
        <ele>648</ele>
        <time>2011-02-08T20:58:19Z</time>
      </trkpt>
      <trkpt lat="43.70408" lon="6.96968">
        <ele>625</ele>
        <time>2011-02-08T20:59:12Z</time>
      </trkpt>
      <trkpt lat="43.70408" lon="6.96982">
        <ele>620</ele>
        <time>2011-02-08T20:59:34Z</time>
      </trkpt>
      <trkpt lat="43.70411" lon="6.97043">
        <ele>623</ele>
        <time>2011-02-08T20:59:50Z</time>
      </trkpt>
      <trkpt lat="43.7042" lon="6.9706">
        <ele>624</ele>
        <time>2011-02-08T20:59:54Z</time>
      </trkpt>
      <trkpt lat="43.70436" lon="6.97076">
        <ele>624</ele>
        <time>2011-02-08T20:59:59Z</time>
      </trkpt>
      <trkpt lat="43.70462" lon="6.97101">
        <ele>630</ele>
        <time>2011-02-08T21:00:09Z</time>
      </trkpt>
      <trkpt lat="43.70511" lon="6.97137">
        <ele>630</ele>
        <time>2011-02-08T21:00:24Z</time>
      </trkpt>
      <trkpt lat="43.70525" lon="6.97145">
        <ele>628</ele>
        <time>2011-02-08T21:00:43Z</time>
      </trkpt>
      <trkpt lat="43.70531" lon="6.97153">
        <ele>620</ele>
        <time>2011-02-08T21:01:10Z</time>
      </trkpt>
      <trkpt lat="43.70556" lon="6.97157">
        <ele>622</ele>
        <time>2011-02-08T21:01:28Z</time>
      </trkpt>
      <trkpt lat="43.70652" lon="6.97163">
        <ele>636</ele>
        <time>2011-02-08T21:02:01Z</time>
      </trkpt>
      <trkpt lat="43.70682" lon="6.97178">
        <ele>638</ele>
        <time>2011-02-08T21:02:11Z</time>
      </trkpt>
      <trkpt lat="43.707" lon="6.97193">
        <ele>638</ele>
        <time>2011-02-08T21:02:18Z</time>
      </trkpt>
      <trkpt lat="43.70713" lon="6.97207">
        <ele>637</ele>
        <time>2011-02-08T21:02:23Z</time>
      </trkpt>
      <trkpt lat="43.7073" lon="6.97233">
        <ele>637</ele>
        <time>2011-02-08T21:02:30Z</time>
      </trkpt>
      <trkpt lat="43.70751" lon="6.97285">
        <ele>634</ele>
        <time>2011-02-08T21:02:36Z</time>
      </trkpt>
      <trkpt lat="43.70775" lon="6.97338">
        <ele>637</ele>
        <time>2011-02-08T21:02:46Z</time>
      </trkpt>
      <trkpt lat="43.70782" lon="6.97358">
        <ele>636</ele>
        <time>2011-02-08T21:02:52Z</time>
      </trkpt>
      <trkpt lat="43.7079" lon="6.97372">
        <ele>627</ele>
        <time>2011-02-08T21:03:45Z</time>
      </trkpt>
      <trkpt lat="43.7078" lon="6.97374">
        <ele>624</ele>
        <time>2011-02-08T21:06:43Z</time>
      </trkpt>
    </trkseg>
  </trk>
</gpx>